Time;durP1;ratioP1;P1;durP2;ratioP2;P2;SDS_P1;SDS_P2;PMS_P1;PMS_P2;Temp;Humidity;BMP_temperature;BMP_pressure;BME280_temperature;BME280_humidity;BME280_pressure;Samples;Min_cycle;Max_cycle;Signal;HPM_P1;HPM_P2
2021/07/26 00:01:03;;;;;;;9.40;4.72;;;20.90;99.90;;;;;;5053126;28;20490;-74
2021/07/26 00:03:29;;;;;;;11.10;5.60;;;20.90;99.90;;;;;;5044960;28;20032;-74
2021/07/26 00:05:57;;;;;;;8.23;4.60;;;20.80;99.90;;;;;;5043948;28;20030;-74
2021/07/26 00:08:23;;;;;;;10.63;4.70;;;20.70;99.90;;;;;;5043473;28;20118;-73
2021/07/26 00:11:01;;;;;;;11.13;5.03;;;20.70;99.90;;;;;;5044337;28;20051;-73
2021/07/26 00:13:27;;;;;;;9.48;4.97;;;20.60;99.90;;;;;;5045120;28;20045;-73
2021/07/26 00:15:53;;;;;;;11.85;5.82;;;20.50;99.90;;;;;;5044485;28;20087;-75
2021/07/26 00:18:19;;;;;;;11.48;5.43;;;20.50;99.90;;;;;;5044831;28;20470;-73
2021/07/26 00:20:45;;;;;;;22.02;6.00;;;20.50;99.90;;;;;;5044402;28;20041;-74
2021/07/26 00:23:10;;;;;;;11.60;4.35;;;20.50;99.90;;;;;;5044696;28;20038;-72
2021/07/26 00:25:36;;;;;;;11.63;5.47;;;20.40;99.90;;;;;;5043494;28;20053;-74
2021/07/26 00:28:02;;;;;;;12.18;5.38;;;20.40;99.90;;;;;;5042818;28;20033;-74
2021/07/26 00:30:27;;;;;;;11.05;5.20;;;20.40;99.90;;;;;;5045216;28;20076;-73
2021/07/26 00:32:53;;;;;;;10.55;5.53;;;20.40;99.90;;;;;;5064472;28;20025;-74
2021/07/26 00:35:18;;;;;;;11.95;5.35;;;20.40;99.90;;;;;;5063295;28;20044;-73
2021/07/26 00:37:44;;;;;;;10.23;5.13;;;20.40;99.90;;;;;;5064131;28;20029;-73
2021/07/26 00:40:10;;;;;;;7.63;4.65;;;20.40;99.90;;;;;;5064462;28;20195;-74
2021/07/26 00:42:37;;;;;;;11.63;5.93;;;20.30;99.90;;;;;;5064292;28;20029;-74
2021/07/26 00:45:06;;;;;;;9.90;5.50;;;20.30;99.90;;;;;;5064531;28;20029;-75
2021/07/26 00:47:31;;;;;;;10.27;5.00;;;20.30;99.90;;;;;;5063793;28;20107;-75
2021/07/26 00:49:57;;;;;;;9.82;4.95;;;20.20;99.90;;;;;;5062886;28;20032;-73
2021/07/26 00:52:24;;;;;;;13.85;4.93;;;20.10;99.90;;;;;;5064416;28;20060;-73
2021/07/26 00:54:51;;;;;;;11.38;5.95;;;20.00;99.90;;;;;;5062721;28;20064;-74
2021/07/26 00:57:17;;;;;;;10.02;5.28;;;20.00;99.90;;;;;;5062865;28;20102;-74
2021/07/26 00:59:43;;;;;;;12.10;5.75;;;19.90;99.90;;;;;;5064331;28;20051;-74
2021/07/26 01:02:09;;;;;;;13.25;5.85;;;19.90;99.90;;;;;;5062728;28;20025;-73
2021/07/26 01:04:34;;;;;;;14.00;6.10;;;19.90;99.90;;;;;;5064267;28;20086;-73
2021/07/26 01:07:00;;;;;;;13.02;5.85;;;19.90;99.90;;;;;;5064269;28;20029;-73
2021/07/26 01:09:26;;;;;;;14.35;6.22;;;19.90;99.90;;;;;;5062603;28;20025;-73
2021/07/26 01:11:52;;;;;;;11.48;5.80;;;19.80;99.90;;;;;;5064027;28;20025;-73
2021/07/26 01:14:18;;;;;;;9.90;5.53;;;19.90;99.90;;;;;;5063781;28;20102;-74
2021/07/26 01:16:47;;;;;;;11.23;5.88;;;19.80;99.90;;;;;;5064002;28;20033;-73
2021/07/26 01:19:13;;;;;;;14.23;6.10;;;19.70;99.90;;;;;;5063869;28;20025;-74
2021/07/26 01:21:39;;;;;;;9.90;5.78;;;19.60;99.90;;;;;;5064139;28;20572;-75
2021/07/26 01:24:05;;;;;;;11.35;6.63;;;19.60;99.90;;;;;;5063093;28;20025;-76
2021/07/26 01:26:31;;;;;;;11.35;6.25;;;19.60;99.90;;;;;;5064375;28;20032;-73
2021/07/26 01:28:59;;;;;;;13.07;6.18;;;19.60;99.90;;;;;;5064322;28;20037;-74
2021/07/26 01:31:25;;;;;;;11.15;6.07;;;19.50;99.90;;;;;;5064251;28;20021;-75
2021/07/26 01:33:52;;;;;;;11.68;5.75;;;19.50;99.90;;;;;;5063540;28;20037;-75
2021/07/26 01:36:19;;;;;;;11.63;5.65;;;19.40;99.90;;;;;;5062432;28;20036;-74
2021/07/26 01:38:45;;;;;;;10.77;6.25;;;19.40;99.90;;;;;;5063620;28;20025;-74
2021/07/26 01:41:17;;;;;;;12.32;6.40;;;19.30;99.90;;;;;;5062295;28;20063;-75
2021/07/26 01:46:33;;;;;;;13.77;6.10;;;19.30;99.90;;;;;;5063778;28;20051;-74
2021/07/26 01:49:06;;;;;;;15.13;7.18;;;19.30;99.90;;;;;;5063675;28;20539;-74
2021/07/26 01:51:39;;;;;;;15.00;7.57;;;19.20;99.90;;;;;;5063932;28;20029;-73
2021/07/26 01:54:06;;;;;;;11.70;6.53;;;19.20;99.90;;;;;;5063687;28;20104;-73
2021/07/26 01:56:33;;;;;;;15.13;7.38;;;19.10;99.90;;;;;;5061984;28;20029;-75
2021/07/26 01:59:01;;;;;;;13.55;6.82;;;19.20;99.90;;;;;;5066720;28;20040;-76
2021/07/26 02:01:27;;;;;;;12.75;7.10;;;19.10;99.90;;;;;;5066033;28;20036;-75
2021/07/26 02:03:52;;;;;;;15.48;7.78;;;19.00;99.90;;;;;;5065536;28;20120;-75
2021/07/26 02:06:18;;;;;;;14.05;7.50;;;19.00;99.90;;;;;;5082155;28;20032;-75
2021/07/26 02:08:43;;;;;;;9.32;6.07;;;19.00;99.90;;;;;;5067069;28;20033;-74
2021/07/26 02:11:09;;;;;;;17.83;7.88;;;19.00;99.90;;;;;;5065853;28;20052;-73
2021/07/26 02:13:35;;;;;;;13.15;6.47;;;19.00;99.90;;;;;;5067009;28;20029;-75
2021/07/26 02:16:01;;;;;;;16.50;6.85;;;19.00;99.90;;;;;;5082499;28;20052;-74
2021/07/26 02:18:27;;;;;;;19.50;8.18;;;19.00;99.90;;;;;;5065816;28;20056;-74
2021/07/26 02:20:52;;;;;;;12.57;6.68;;;18.90;99.90;;;;;;5066542;28;20115;-73
2021/07/26 02:23:18;;;;;;;11.88;7.68;;;18.90;99.90;;;;;;5066889;28;20029;-74
2021/07/26 02:25:44;;;;;;;12.13;7.30;;;18.90;99.90;;;;;;5066431;28;20036;-72
2021/07/26 02:28:09;;;;;;;18.05;7.72;;;18.80;99.90;;;;;;5066737;28;20025;-75
2021/07/26 02:30:36;;;;;;;14.40;6.88;;;18.80;99.90;;;;;;5065148;28;20104;-74
2021/07/26 02:33:01;;;;;;;12.35;7.20;;;18.80;99.90;;;;;;5065734;28;20025;-74
2021/07/26 02:35:28;;;;;;;20.05;9.32;;;18.80;99.90;;;;;;5067192;28;20037;-75
2021/07/26 02:37:54;;;;;;;17.55;7.93;;;18.80;99.90;;;;;;5065465;28;20024;-71
2021/07/26 02:40:21;;;;;;;15.23;7.85;;;18.70;99.90;;;;;;5066304;28;20071;-72
2021/07/26 02:42:46;;;;;;;17.20;8.88;;;18.70;99.90;;;;;;5065035;28;20025;-72
2021/07/26 02:45:12;;;;;;;12.93;7.88;;;18.70;99.90;;;;;;5066491;28;20100;-73
2021/07/26 02:47:38;;;;;;;14.18;8.13;;;18.80;99.90;;;;;;5066430;28;20032;-72
2021/07/26 02:50:04;;;;;;;20.52;8.38;;;18.80;99.90;;;;;;5081998;28;20075;-73
2021/07/26 02:52:30;;;;;;;15.60;7.25;;;18.80;99.90;;;;;;5065154;28;20029;-73
2021/07/26 02:54:56;;;;;;;14.05;7.88;;;18.90;99.90;;;;;;5065084;28;20122;-71
2021/07/26 02:57:22;;;;;;;22.23;8.98;;;18.90;99.90;;;;;;5066302;28;20029;-73
2021/07/26 02:59:47;;;;;;;17.98;7.13;;;18.90;99.90;;;;;;5066210;28;20021;-74
2021/07/26 03:02:13;;;;;;;18.60;7.40;;;18.90;99.90;;;;;;5064873;28;20358;-75
2021/07/26 03:04:39;;;;;;;14.73;8.05;;;18.90;99.90;;;;;;5066246;28;20021;-74
2021/07/26 03:07:04;;;;;;;17.73;8.27;;;18.80;99.90;;;;;;5066204;28;20112;-75
2021/07/26 03:09:30;;;;;;;17.77;8.10;;;18.80;99.90;;;;;;5065450;28;20060;-74
2021/07/26 03:11:55;;;;;;;14.20;7.68;;;18.80;99.90;;;;;;5065811;28;20025;-73
2021/07/26 03:14:21;;;;;;;26.08;8.80;;;18.80;99.90;;;;;;5065241;28;20048;-74
2021/07/26 03:16:47;;;;;;;21.48;9.45;;;18.70;99.90;;;;;;5066068;28;20017;-73
2021/07/26 03:19:12;;;;;;;14.85;8.07;;;18.70;99.90;;;;;;5065938;28;20025;-74
2021/07/26 03:21:38;;;;;;;18.35;7.78;;;18.70;99.90;;;;;;5065463;28;20112;-73
2021/07/26 03:24:04;;;;;;;18.92;7.47;;;18.70;99.90;;;;;;5064200;28;20032;-74
2021/07/26 03:26:31;;;;;;;16.20;7.63;;;18.60;99.90;;;;;;5065315;28;20044;-73
2021/07/26 03:28:57;;;;;;;14.27;7.07;;;18.70;99.90;;;;;;5064101;28;20120;-73
2021/07/26 03:31:23;;;;;;;15.13;8.05;;;18.60;99.90;;;;;;5065573;28;20474;-74
2021/07/26 03:33:48;;;;;;;15.57;7.72;;;18.60;99.90;;;;;;5065437;28;20025;-72
2021/07/26 03:36:16;;;;;;;16.35;7.97;;;18.50;99.90;;;;;;5064228;28;20389;-73
2021/07/26 03:38:42;;;;;;;16.85;9.38;;;18.50;99.90;;;;;;5065043;28;20029;-73
2021/07/26 03:41:08;;;;;;;12.98;7.75;;;18.50;99.90;;;;;;5065002;28;20045;-74
2021/07/26 03:43:37;;;;;;;15.13;8.23;;;18.50;99.90;;;;;;5065422;28;20089;-75
2021/07/26 03:46:02;;;;;;;17.98;7.88;;;18.40;99.90;;;;;;5064076;28;20032;-75
2021/07/26 03:48:28;;;;;;;14.95;9.05;;;18.40;99.90;;;;;;5065357;28;20024;-72
2021/07/26 03:50:54;;;;;;;15.93;8.82;;;18.40;99.90;;;;;;5065344;28;20097;-72
2021/07/26 03:53:19;;;;;;;20.90;8.85;;;18.40;99.90;;;;;;5065381;28;20025;-73
2021/07/26 03:55:45;;;;;;;11.85;7.13;;;18.40;99.90;;;;;;5065239;28;20055;-73
2021/07/26 03:58:10;;;;;;;17.75;8.90;;;18.40;99.90;;;;;;5065008;28;20025;-73
2021/07/26 04:00:36;;;;;;;15.95;8.63;;;18.30;99.90;;;;;;5063519;28;20044;-73
2021/07/26 04:05:34;;;;;;;14.70;7.70;;;18.30;99.90;;;;;;5064985;28;20032;-74
2021/07/26 04:08:23;;;;;;;15.30;7.93;;;18.30;99.90;;;;;;5065132;28;20047;-71
2021/07/26 04:10:54;;;;;;;24.50;8.32;;;18.30;99.90;;;;;;5064958;28;20025;-72
2021/07/26 04:13:20;;;;;;;13.32;7.78;;;18.40;99.90;;;;;;5080313;28;20036;-71
2021/07/26 04:15:49;;;;;;;18.65;7.38;;;18.30;99.90;;;;;;5064560;28;20049;-72
2021/07/26 04:18:14;;;;;;;13.45;7.28;;;18.30;99.90;;;;;;5064578;28;20093;-73
2021/07/26 04:20:41;;;;;;;15.65;8.13;;;18.30;99.90;;;;;;5062272;28;20033;-71
2021/07/26 04:23:06;;;;;;;16.25;7.93;;;18.40;99.90;;;;;;5064140;28;20036;-73
2021/07/26 04:25:32;;;;;;;16.40;8.77;;;18.40;99.90;;;;;;5065005;28;20029;-72
2021/07/26 04:27:57;;;;;;;13.05;7.43;;;18.40;99.90;;;;;;5063459;28;20482;-71
2021/07/26 04:30:23;;;;;;;15.75;7.10;;;18.50;99.90;;;;;;5059088;28;20040;-71
2021/07/26 04:32:49;;;;;;;14.68;7.28;;;18.50;99.90;;;;;;5044529;28;20383;-72
2021/07/26 04:35:16;;;;;;;15.52;8.02;;;18.50;99.90;;;;;;5044941;28;20025;-72
2021/07/26 04:37:42;;;;;;;9.15;5.57;;;18.60;99.90;;;;;;5044549;28;20067;-71
2021/07/26 04:40:09;;;;;;;12.77;6.63;;;18.60;99.90;;;;;;5062913;28;20041;-71
2021/07/26 04:42:39;;;;;;;15.18;7.43;;;18.70;99.90;;;;;;5064206;28;20116;-73
2021/07/26 04:45:06;;;;;;;14.30;7.82;;;18.60;99.90;;;;;;5064313;28;20052;-72
2021/07/26 04:47:32;;;;;;;14.30;7.10;;;18.70;99.90;;;;;;5064632;28;20025;-71
2021/07/26 04:49:58;;;;;;;14.38;7.07;;;18.80;99.90;;;;;;5079847;28;20025;-72
2021/07/26 04:52:23;;;;;;;14.80;6.63;;;18.70;99.90;;;;;;5059583;28;20098;-73
2021/07/26 04:54:49;;;;;;;14.00;7.38;;;18.80;99.90;;;;;;5054021;28;20036;-73
2021/07/26 04:57:14;;;;;;;11.68;6.63;;;18.90;99.90;;;;;;5053463;28;20036;-72
2021/07/26 04:59:41;;;;;;;11.75;6.57;;;18.90;99.90;;;;;;5042414;28;20032;-72
2021/07/26 05:02:06;;;;;;;15.27;7.32;;;18.90;99.90;;;;;;5044661;28;20525;-74
2021/07/26 05:04:32;;;;;;;14.70;6.63;;;19.00;99.90;;;;;;5050066;28;20021;-75
2021/07/26 05:07:02;;;;;;;14.35;6.93;;;19.00;99.90;;;;;;5059371;28;20025;-73
2021/07/26 05:09:30;;;;;;;13.48;7.63;;;19.00;99.90;;;;;;5055906;28;20040;-74
2021/07/26 05:12:01;;;;;;;10.35;5.75;;;19.00;99.90;;;;;;5043800;28;20040;-72
2021/07/26 05:14:27;;;;;;;11.13;5.28;;;19.00;99.90;;;;;;5044229;28;20042;-72
2021/07/26 05:16:53;;;;;;;14.38;6.47;;;19.00;99.90;;;;;;5042879;28;20026;-72
2021/07/26 05:19:19;;;;;;;11.80;5.88;;;19.00;99.90;;;;;;5042597;28;20051;-71
2021/07/26 05:21:44;;;;;;;13.52;6.32;;;19.00;99.90;;;;;;5043552;28;20112;-72
2021/07/26 05:24:13;;;;;;;11.20;5.95;;;19.00;99.90;;;;;;5044034;28;20029;-73
2021/07/26 05:26:38;;;;;;;16.98;6.57;;;19.00;99.90;;;;;;5043855;28;20038;-73
2021/07/26 05:29:04;;;;;;;12.15;5.85;;;19.00;99.90;;;;;;5043609;28;20084;-73
2021/07/26 05:31:30;;;;;;;8.57;5.75;;;19.10;99.90;;;;;;5043958;28;20041;-74
2021/07/26 05:33:55;;;;;;;13.00;6.28;;;19.10;99.90;;;;;;5047151;28;20036;-72
2021/07/26 05:36:23;;;;;;;14.07;6.88;;;19.10;99.90;;;;;;5046599;28;20514;-74
2021/07/26 05:38:50;;;;;;;13.85;6.47;;;19.20;99.90;;;;;;5047994;28;20028;-73
2021/07/26 05:41:16;;;;;;;13.60;6.15;;;19.10;99.90;;;;;;5045788;28;20108;-74
2021/07/26 05:43:42;;;;;;;11.88;6.07;;;19.10;99.90;;;;;;5047416;28;20033;-73
2021/07/26 05:46:07;;;;;;;16.25;6.60;;;19.20;99.90;;;;;;5047534;28;20037;-74
2021/07/26 05:48:33;;;;;;;12.73;6.75;;;19.20;99.90;;;;;;5047465;28;20057;-73
2021/07/26 05:50:58;;;;;;;10.18;6.18;;;19.30;99.90;;;;;;5047626;28;20026;-74
2021/07/26 05:53:24;;;;;;;16.35;6.60;;;19.40;99.90;;;;;;5047918;28;20835;-73
2021/07/26 05:55:49;;;;;;;8.82;5.25;;;19.40;99.90;;;;;;5047797;28;20060;-74
2021/07/26 05:58:15;;;;;;;11.93;6.28;;;19.40;99.90;;;;;;5047862;28;20100;-73
2021/07/26 06:00:42;;;;;;;11.85;5.68;;;19.50;99.90;;;;;;5045783;28;20041;-73
2021/07/26 06:03:08;;;;;;;13.55;6.38;;;19.60;99.90;;;;;;5047138;28;20025;-73
2021/07/26 06:05:34;;;;;;;12.00;6.10;;;19.60;99.90;;;;;;5047883;28;20025;-73
2021/07/26 06:08:00;;;;;;;12.82;7.05;;;19.60;99.90;;;;;;5054506;28;20032;-73
2021/07/26 06:10:25;;;;;;;13.45;5.85;;;19.60;99.90;;;;;;5059302;28;20037;-74
2021/07/26 06:12:53;;;;;;;9.93;6.10;;;19.70;99.90;;;;;;5067247;28;20596;-73
2021/07/26 06:15:19;;;;;;;11.80;6.45;;;19.70;99.90;;;;;;5061782;28;20077;-74
2021/07/26 06:17:45;;;;;;;10.55;5.85;;;19.80;99.90;;;;;;5046133;28;20026;-74
2021/07/26 06:20:11;;;;;;;9.82;5.40;;;19.80;99.90;;;;;;5047002;28;20041;-73
2021/07/26 06:22:38;;;;;;;14.20;5.95;;;19.90;99.90;;;;;;5047180;28;20028;-74
2021/07/26 06:25:09;;;;;;;9.32;5.57;;;19.90;99.90;;;;;;5047132;28;20025;-75
2021/07/26 06:27:35;;;;;;;9.05;5.32;;;19.90;99.90;;;;;;5047028;28;20029;-75
2021/07/26 06:30:02;;;;;;;11.57;5.68;;;19.90;99.90;;;;;;5045616;28;20097;-75
2021/07/26 06:32:31;;;;;;;11.50;5.68;;;20.10;99.90;;;;;;5046849;28;20029;-74
2021/07/26 06:34:57;;;;;;;9.05;5.50;;;20.10;99.90;;;;;;5045478;28;20029;-75
2021/07/26 06:37:23;;;;;;;10.95;5.85;;;20.20;99.90;;;;;;5046677;28;20033;-75
2021/07/26 06:39:48;;;;;;;14.75;5.55;;;20.20;99.90;;;;;;5046551;28;20033;-73
2021/07/26 06:42:14;;;;;;;10.75;5.88;;;20.30;99.90;;;;;;5054480;28;20103;-74
2021/07/26 06:44:40;;;;;;;9.82;4.75;;;20.30;99.90;;;;;;5057386;28;20025;-74
2021/07/26 06:47:06;;;;;;;11.52;6.10;;;20.40;99.90;;;;;;5051031;28;20028;-75
2021/07/26 06:49:32;;;;;;;9.32;4.90;;;20.50;99.90;;;;;;5066217;28;20028;-73
2021/07/26 06:51:58;;;;;;;13.27;6.20;;;20.50;99.90;;;;;;5052073;28;20026;-74
2021/07/26 06:54:24;;;;;;;11.57;5.25;;;20.50;99.90;;;;;;5044795;28;20489;-73
2021/07/26 06:56:49;;;;;;;8.00;4.78;;;20.60;99.90;;;;;;5046462;28;20063;-73
2021/07/26 06:59:15;;;;;;;8.52;5.00;;;20.60;99.90;;;;;;5045180;28;20029;-73
2021/07/26 07:01:42;;;;;;;7.88;4.30;;;20.60;99.90;;;;;;5046500;28;20064;-74
2021/07/26 07:04:08;;;;;;;6.57;3.95;;;20.70;99.90;;;;;;5044536;28;20030;-75
2021/07/26 07:06:33;;;;;;;8.20;4.53;;;20.80;99.90;;;;;;5046280;28;20041;-75
2021/07/26 07:08:59;;;;;;;8.15;4.93;;;20.80;99.90;;;;;;5046077;28;20030;-74
2021/07/26 07:11:25;;;;;;;7.57;4.43;;;20.90;99.90;;;;;;5045685;28;20026;-74
2021/07/26 07:13:51;;;;;;;11.18;4.97;;;20.90;99.90;;;;;;5045190;28;20030;-76
2021/07/26 07:16:19;;;;;;;8.13;4.20;;;20.90;99.90;;;;;;5045703;28;20032;-74
2021/07/26 07:18:49;;;;;;;10.10;5.43;;;20.90;99.90;;;;;;5045646;28;20028;-75
2021/07/26 07:21:17;;;;;;;12.00;4.60;;;21.00;99.90;;;;;;5050767;28;20037;-73
2021/07/26 07:23:43;;;;;;;7.72;4.63;;;21.00;99.90;;;;;;5069426;28;20051;-76
2021/07/26 07:26:08;;;;;;;9.43;4.90;;;21.10;99.90;;;;;;5044483;28;20036;-76
2021/07/26 07:28:34;;;;;;;8.77;4.28;;;21.10;99.90;;;;;;5045557;28;20022;-75
2021/07/26 07:31:00;;;;;;;7.30;3.50;;;21.10;99.90;;;;;;5045576;28;20029;-76
2021/07/26 07:33:25;;;;;;;8.70;4.55;;;21.20;99.90;;;;;;5044000;28;20025;-76
2021/07/26 07:35:51;;;;;;;6.95;3.97;;;21.20;99.90;;;;;;5044294;28;20029;-74
2021/07/26 07:38:17;;;;;;;6.40;3.78;;;21.20;99.90;;;;;;5044920;28;20032;-75
2021/07/26 07:40:43;;;;;;;10.65;3.25;;;21.30;99.90;;;;;;5045028;28;20478;-75
2021/07/26 07:43:08;;;;;;;9.52;4.40;;;21.30;99.90;;;;;;5044989;28;20504;-73
2021/07/26 07:45:34;;;;;;;6.65;3.25;;;21.30;99.90;;;;;;5045027;28;20064;-75
2021/07/26 07:48:01;;;;;;;8.85;4.35;;;21.30;99.90;;;;;;5050020;28;20033;-76
2021/07/26 07:50:27;;;;;;;8.93;4.43;;;21.40;99.90;;;;;;5060347;28;20087;-72
2021/07/26 07:52:53;;;;;;;7.43;4.00;;;21.50;99.90;;;;;;5053716;28;20032;-74
2021/07/26 07:55:19;;;;;;;7.28;3.63;;;21.60;99.90;;;;;;5062389;28;20021;-75
2021/07/26 07:57:46;;;;;;;5.78;3.38;;;21.60;99.90;;;;;;5043249;28;20040;-75
2021/07/26 08:00:13;;;;;;;6.60;3.28;;;21.70;99.90;;;;;;5043535;28;20064;-74
2021/07/26 08:02:38;;;;;;;6.05;3.20;;;21.80;99.90;;;;;;5044767;28;20022;-74
2021/07/26 08:05:05;;;;;;;5.72;3.83;;;21.90;99.90;;;;;;5044906;28;20085;-74
2021/07/26 08:07:31;;;;;;;6.18;3.03;;;22.00;99.90;;;;;;5045199;28;20030;-75
2021/07/26 08:09:56;;;;;;;5.68;3.13;;;22.00;99.90;;;;;;5044730;28;20049;-73
2021/07/26 08:12:22;;;;;;;7.57;3.20;;;22.00;99.90;;;;;;5044615;28;20026;-73
2021/07/26 08:14:48;;;;;;;4.75;2.70;;;22.00;99.90;;;;;;5043194;28;20112;-72
2021/07/26 08:17:13;;;;;;;6.10;3.35;;;22.10;99.90;;;;;;5056602;28;20022;-72
2021/07/26 08:19:46;;;;;;;6.88;2.80;;;22.30;99.90;;;;;;5046269;28;20024;-73
2021/07/26 08:22:12;;;;;;;4.68;3.05;;;22.30;99.90;;;;;;5063106;28;20036;-74
2021/07/26 08:24:39;;;;;;;7.32;3.25;;;22.40;99.90;;;;;;5062596;28;20084;-75
2021/07/26 08:27:05;;;;;;;12.30;3.60;;;22.40;99.90;;;;;;5072077;28;20389;-75
2021/07/26 08:29:31;;;;;;;12.20;3.13;;;22.40;99.90;;;;;;5059310;28;20045;-73
2021/07/26 08:31:57;;;;;;;6.95;3.20;;;22.40;99.90;;;;;;5054151;28;20102;-74
2021/07/26 08:34:23;;;;;;;5.70;3.08;;;22.40;99.90;;;;;;5044877;28;20029;-74
2021/07/26 08:36:48;;;;;;;8.77;2.97;;;22.50;99.90;;;;;;5042477;28;20021;-74
2021/07/26 08:39:14;;;;;;;5.25;2.75;;;22.60;99.90;;;;;;5041980;28;20021;-72
2021/07/26 08:41:41;;;;;;;4.90;2.78;;;22.70;99.90;;;;;;5041839;28;20059;-74
2021/07/26 08:44:07;;;;;;;5.60;2.90;;;22.60;99.90;;;;;;5043358;28;20025;-74
2021/07/26 08:46:34;;;;;;;10.82;2.40;;;22.60;99.90;;;;;;5043362;28;20992;-75
2021/07/26 08:49:00;;;;;;;3.85;2.63;;;22.60;99.90;;;;;;5042831;28;20033;-76
2021/07/26 08:51:27;;;;;;;13.82;3.70;;;22.70;99.90;;;;;;5041377;28;20504;-74
2021/07/26 08:53:52;;;;;;;5.05;2.80;;;22.60;99.90;;;;;;5042005;28;20013;-75
2021/07/26 08:56:19;;;;;;;5.72;2.65;;;22.50;99.90;;;;;;5042803;28;20049;-74
2021/07/26 08:58:45;;;;;;;6.22;2.97;;;22.50;99.90;;;;;;5043946;28;20018;-76
2021/07/26 09:01:15;;;;;;;5.90;2.67;;;22.60;99.90;;;;;;5041841;28;20038;-74
2021/07/26 09:03:41;;;;;;;7.35;3.33;;;22.60;99.90;;;;;;5042931;28;20087;-72
2021/07/26 09:06:08;;;;;;;6.82;3.17;;;22.70;99.90;;;;;;5043482;28;20052;-73
2021/07/26 09:08:35;;;;;;;11.48;3.08;;;22.80;99.90;;;;;;5045738;28;20049;-74
2021/07/26 09:11:02;;;;;;;5.47;2.72;;;22.90;99.90;;;;;;5047331;28;20030;-76
2021/07/26 09:13:38;;;;;;;5.00;2.55;;;23.00;99.90;;;;;;5046299;28;20029;-74
2021/07/26 09:16:21;;;;;;;7.45;3.13;;;23.10;99.90;;;;;;5045730;28;20466;-74
2021/07/26 09:19:00;;;;;;;10.70;3.55;;;23.20;99.90;;;;;;5046949;28;20028;-73
2021/07/26 09:21:48;;;;;;;5.65;2.85;;;23.30;99.90;;;;;;5046924;28;20061;-73
2021/07/26 09:24:14;;;;;;;5.82;2.80;;;23.50;99.90;;;;;;5045864;28;20028;-75
2021/07/26 09:26:39;;;;;;;3.85;2.65;;;23.70;99.90;;;;;;5056372;28;20029;-72
2021/07/26 09:29:24;;;;;;;5.82;2.60;;;23.70;99.90;;;;;;5050895;28;20052;-73
2021/07/26 09:32:03;;;;;;;3.50;2.15;;;23.80;99.90;;;;;;5045545;28;20029;-73
2021/07/26 09:34:30;;;;;;;4.78;2.58;;;23.80;99.90;;;;;;5045526;28;20812;-72
2021/07/26 09:36:56;;;;;;;4.07;2.53;;;23.90;99.90;;;;;;5051419;28;20021;-75
2021/07/26 09:39:27;;;;;;;5.45;3.15;;;24.00;99.90;;;;;;5045236;28;20029;-73
2021/07/26 09:41:54;;;;;;;3.33;1.80;;;24.10;99.90;;;;;;5046648;28;20045;-73
2021/07/26 09:44:26;;;;;;;3.80;2.22;;;24.30;99.90;;;;;;5045339;28;20478;-74
2021/07/26 09:46:53;;;;;;;4.82;2.38;;;24.30;99.90;;;;;;5045776;28;20048;-74
2021/07/26 09:49:20;;;;;;;6.07;3.00;;;24.50;99.90;;;;;;5057896;28;20185;-74
2021/07/26 09:52:10;;;;;;;5.78;1.80;;;24.70;99.90;;;;;;5055105;28;20088;-74
2021/07/26 09:54:48;;;;;;;7.45;2.05;;;24.80;99.90;;;;;;5046228;28;20029;-72
2021/07/26 09:57:23;;;;;;;2.72;1.88;;;24.90;99.90;;;;;;5044646;28;20068;-74
2021/07/26 09:59:49;;;;;;;2.22;1.50;;;24.90;99.90;;;;;;5045610;28;20025;-74
2021/07/26 10:02:16;;;;;;;2.95;1.75;;;24.90;99.90;;;;;;5044317;28;20028;-72
2021/07/26 10:04:43;;;;;;;3.45;2.17;;;25.00;99.90;;;;;;5045008;28;20128;-72
2021/07/26 10:07:14;;;;;;;2.97;1.90;;;25.00;99.90;;;;;;5045322;28;20021;-74
2021/07/26 10:09:44;;;;;;;2.40;1.65;;;25.10;99.90;;;;;;5046769;28;20029;-75
2021/07/26 10:12:11;;;;;;;2.80;1.65;;;25.20;99.90;;;;;;5046698;28;20071;-73
2021/07/26 10:14:47;;;;;;;3.63;1.48;;;25.20;99.90;;;;;;5046613;28;20049;-74
2021/07/26 10:17:17;;;;;;;2.67;1.52;;;25.30;99.90;;;;;;5047012;28;20025;-74
2021/07/26 10:19:43;;;;;;;3.90;2.15;;;25.40;99.90;;;;;;5046993;28;20025;-73
2021/07/26 10:22:15;;;;;;;1.50;1.05;;;25.50;99.90;;;;;;5046975;28;20084;-74
2021/07/26 10:24:48;;;;;;;1.67;0.82;;;25.50;99.90;;;;;;5046842;28;20490;-70
2021/07/26 10:27:29;;;;;;;1.50;1.25;;;25.50;99.90;;;;;;5046900;28;20091;-76
2021/07/26 10:29:56;;;;;;;4.32;1.60;;;25.70;99.90;;;;;;5048542;28;20053;-72
2021/07/26 10:32:31;;;;;;;5.03;1.45;;;25.80;99.90;;;;;;5066924;28;20095;-72
2021/07/26 10:35:02;;;;;;;2.53;1.45;;;26.00;99.90;;;;;;5067056;28;20025;-71
2021/07/26 10:37:39;;;;;;;3.40;1.50;;;26.10;99.90;;;;;;5060455;28;20029;-71
2021/07/26 10:40:28;;;;;;;4.95;1.67;;;26.20;99.90;;;;;;5046412;28;20089;-69
2021/07/26 10:43:00;;;;;;;1.45;0.90;;;26.20;99.90;;;;;;5046372;28;20053;-71
2021/07/26 10:45:32;;;;;;;2.50;1.20;;;26.20;99.90;;;;;;5046187;28;20096;-74
2021/07/26 10:48:22;;;;;;;2.33;1.05;;;26.40;99.90;;;;;;5044978;28;20398;-73
2021/07/26 10:50:53;;;;;;;1.92;1.20;;;26.70;99.90;;;;;;5056588;28;20052;-73
2021/07/26 10:53:36;;;;;;;2.10;1.55;;;26.80;99.90;;;;;;5066237;28;20104;-71
2021/07/26 10:56:05;;;;;;;1.75;1.20;;;26.90;99.90;;;;;;5066073;28;20035;-74
2021/07/26 10:58:39;;;;;;;2.47;1.13;;;27.00;99.90;;;;;;5066070;28;20573;-76
2021/07/26 11:01:20;;;;;;;2.70;1.17;;;27.20;99.90;;;;;;5066340;28;20033;-73
2021/07/26 11:03:47;;;;;;;3.75;1.42;;;27.30;99.90;;;;;;5066151;28;20033;-71
2021/07/26 11:06:34;;;;;;;3.53;1.30;;;27.40;99.90;;;;;;5065045;28;20029;-71
2021/07/26 11:09:18;;;;;;;3.40;1.33;;;27.50;99.90;;;;;;5064321;28;20580;-69
2021/07/26 11:11:45;;;;;;;3.20;1.48;;;27.50;99.90;;;;;;5052170;28;20029;-70
2021/07/26 11:14:12;;;;;;;2.08;1.20;;;27.60;99.90;;;;;;5046010;28;20092;-70
2021/07/26 11:16:53;;;;;;;2.50;1.20;;;27.70;99.90;;;;;;5046050;28;20060;-73
2021/07/26 11:19:34;;;;;;;2.47;1.50;;;27.80;99.90;;;;;;5045927;28;20029;-70
2021/07/26 11:22:01;;;;;;;2.78;1.05;;;27.80;99.90;;;;;;5046509;28;20057;-69
2021/07/26 11:24:52;;;;;;;4.38;1.88;;;27.60;99.90;;;;;;5046065;28;20094;-71
2021/07/26 11:27:32;;;;;;;1.60;0.90;;;27.60;99.90;;;;;;5045713;28;20085;-74
2021/07/26 11:29:58;;;;;;;2.28;1.27;;;27.60;99.90;;;;;;5045960;28;20037;-70
2021/07/26 11:32:26;;;;;;;4.85;1.35;;;27.50;99.90;;;;;;5065716;28;20047;-70
2021/07/26 11:34:59;;;;;;;1.52;0.85;;;27.30;99.90;;;;;;5054547;28;20490;-69
2021/07/26 11:37:32;;;;;;;1.85;1.08;;;27.30;99.90;;;;;;5045694;28;20029;-69
2021/07/26 11:40:08;;;;;;;1.70;1.08;;;27.30;99.90;;;;;;5045843;28;20029;-69
2021/07/26 11:42:35;;;;;;;1.75;0.85;;;27.30;99.90;;;;;;5045532;28;20026;-73
2021/07/26 11:45:02;;;;;;;1.25;0.98;;;27.30;99.90;;;;;;5058330;28;20025;-72
2021/07/26 11:47:41;;;;;;;2.40;0.95;;;27.30;99.90;;;;;;5065945;28;20104;-71
2021/07/26 11:50:12;;;;;;;2.28;1.13;;;27.30;99.90;;;;;;5065505;28;20025;-71
2021/07/26 11:52:54;;;;;;;1.35;1.00;;;27.30;99.90;;;;;;5065534;28;20017;-71
2021/07/26 11:55:21;;;;;;;2.13;1.25;;;27.50;99.90;;;;;;5065498;28;20108;-71
2021/07/26 11:58:03;;;;;;;3.58;1.30;;;27.70;99.90;;;;;;5065327;28;20461;-71
2021/07/26 12:00:39;;;;;;;2.30;1.50;;;27.80;99.90;;;;;;5064535;28;20047;-71
2021/07/26 12:03:06;;;;;;;4.55;1.42;;;28.10;99.90;;;;;;5065376;28;20470;-73
2021/07/26 12:05:34;;;;;;;2.40;1.40;;;28.40;99.90;;;;;;5049585;28;20025;-70
2021/07/26 12:08:00;;;;;;;1.70;1.17;;;28.70;99.90;;;;;;5045336;28;20033;-71
2021/07/26 12:10:34;;;;;;;4.53;1.30;;;28.70;99.90;;;;;;5044202;28;20021;-73
2021/07/26 12:13:09;;;;;;;3.65;1.33;;;28.40;99.90;;;;;;5045191;28;20037;-72
2021/07/26 12:15:36;;;;;;;1.13;1.00;;;28.40;99.90;;;;;;5044754;28;20064;-74
2021/07/26 12:18:22;;;;;;;1.65;1.20;;;28.50;99.90;;;;;;5044973;28;20105;-72
2021/07/26 12:20:51;;;;;;;1.15;0.90;;;28.70;99.90;;;;;;5044754;28;20053;-73
2021/07/26 12:23:18;;;;;;;8.18;1.52;;;28.70;99.90;;;;;;5044800;28;20025;-72
2021/07/26 12:25:55;;;;;;;2.08;1.20;;;28.90;99.90;;;;;;5043633;28;20026;-73
2021/07/26 12:28:23;;;;;;;1.85;1.13;;;29.20;99.90;;;;;;5045041;28;20037;-73
2021/07/26 12:30:51;;;;;;;2.05;1.25;;;29.60;99.90;;;;;;5044929;28;20033;-73
2021/07/26 12:33:32;;;;;;;3.15;1.67;;;30.00;99.90;;;;;;5044987;28;20081;-71
2021/07/26 12:36:15;;;;;;;2.38;0.90;;;30.10;99.90;;;;;;5044519;28;20394;-71
2021/07/26 12:39:03;;;;;;;1.73;1.20;;;30.30;99.90;;;;;;5044286;28;20025;-69
2021/07/26 12:41:33;;;;;;;2.05;1.10;;;30.50;99.90;;;;;;5044784;28;20064;-73
2021/07/26 12:44:35;;;;;;;2.92;1.65;;;30.60;99.90;;;;;;5043764;28;20025;-70
2021/07/26 12:47:00;;;;;;;19.52;1.92;;;30.70;99.90;;;;;;5044422;28;20030;-70
2021/07/26 12:49:26;;;;;;;2.17;1.40;;;30.90;99.90;;;;;;5044175;28;20089;-73
2021/07/26 12:51:53;;;;;;;1.60;1.02;;;31.00;99.90;;;;;;5044290;28;20123;-76